sensor_id;sensor_type;location;lat;lon;timestamp;temperature;humidity
7516;DHT22;3799;47.184;8.538;2022-10-23T00:00:55;12.80;99.90
7516;DHT22;3799;47.184;8.538;2022-10-23T00:03:21;12.70;99.90
7516;DHT22;3799;47.184;8.538;2022-10-23T00:05:46;12.80;99.90
7516;DHT22;3799;47.184;8.538;2022-10-23T00:08:14;12.90;99.90
7516;DHT22;3799;47.184;8.538;2022-10-23T00:10:41;12.60;99.90
7516;DHT22;3799;47.184;8.538;2022-10-23T00:13:07;12.80;99.90
7516;DHT22;3799;47.184;8.538;2022-10-23T00:15:33;12.50;99.90
7516;DHT22;3799;47.184;8.538;2022-10-23T00:17:59;12.50;99.90
7516;DHT22;3799;47.184;8.538;2022-10-23T00:20:25;12.80;99.90
7516;DHT22;3799;47.184;8.538;2022-10-23T00:22:51;12.50;99.90
7516;DHT22;3799;47.184;8.538;2022-10-23T00:25:16;12.70;99.90
7516;DHT22;3799;47.184;8.538;2022-10-23T00:27:43;12.50;99.90
7516;DHT22;3799;47.184;8.538;2022-10-23T00:30:08;12.40;99.90
7516;DHT22;3799;47.184;8.538;2022-10-23T00:32:34;12.50;99.90
7516;DHT22;3799;47.184;8.538;2022-10-23T00:35:00;12.50;99.90
7516;DHT22;3799;47.184;8.538;2022-10-23T00:37:25;12.70;99.90
7516;DHT22;3799;47.184;8.538;2022-10-23T00:39:51;12.40;99.90
7516;DHT22;3799;47.184;8.538;2022-10-23T00:42:17;12.50;99.90
7516;DHT22;3799;47.184;8.538;2022-10-23T00:47:08;12.50;99.90
7516;DHT22;3799;47.184;8.538;2022-10-23T00:49:35;12.50;99.90
7516;DHT22;3799;47.184;8.538;2022-10-23T00:52:02;12.60;99.90
7516;DHT22;3799;47.184;8.538;2022-10-23T00:54:30;12.60;99.90
7516;DHT22;3799;47.184;8.538;2022-10-23T00:56:58;12.60;99.90
7516;DHT22;3799;47.184;8.538;2022-10-23T00:59:24;12.60;99.90
7516;DHT22;3799;47.184;8.538;2022-10-23T01:01:50;12.60;99.90
7516;DHT22;3799;47.184;8.538;2022-10-23T01:04:16;12.50;99.90
7516;DHT22;3799;47.184;8.538;2022-10-23T01:09:18;12.50;99.90
7516;DHT22;3799;47.184;8.538;2022-10-23T01:11:51;12.60;99.90
7516;DHT22;3799;47.184;8.538;2022-10-23T01:14:22;12.40;99.90
7516;DHT22;3799;47.184;8.538;2022-10-23T01:27:14;12.30;99.90
7516;DHT22;3799;47.184;8.538;2022-10-23T01:29:40;12.10;99.90
7516;DHT22;3799;47.184;8.538;2022-10-23T01:32:08;12.10;99.90
7516;DHT22;3799;47.184;8.538;2022-10-23T01:34:42;12.20;99.90
7516;DHT22;3799;47.184;8.538;2022-10-23T01:37:10;12.20;99.90
7516;DHT22;3799;47.184;8.538;2022-10-23T01:39:37;12.30;99.90
7516;DHT22;3799;47.184;8.538;2022-10-23T01:42:12;12.10;99.90
7516;DHT22;3799;47.184;8.538;2022-10-23T01:44:46;12.10;99.90
7516;DHT22;3799;47.184;8.538;2022-10-23T01:47:14;11.80;99.90
7516;DHT22;3799;47.184;8.538;2022-10-23T01:49:41;12.20;99.90
7516;DHT22;3799;47.184;8.538;2022-10-23T01:52:08;11.90;99.90
7516;DHT22;3799;47.184;8.538;2022-10-23T01:54:37;12.00;99.90
7516;DHT22;3799;47.184;8.538;2022-10-23T01:57:04;12.00;99.90
7516;DHT22;3799;47.184;8.538;2022-10-23T01:59:33;12.10;99.90
7516;DHT22;3799;47.184;8.538;2022-10-23T02:02:01;12.10;99.90
7516;DHT22;3799;47.184;8.538;2022-10-23T02:04:33;12.10;99.90
7516;DHT22;3799;47.184;8.538;2022-10-23T02:06:59;12.10;99.90
7516;DHT22;3799;47.184;8.538;2022-10-23T02:09:25;12.10;99.90
7516;DHT22;3799;47.184;8.538;2022-10-23T02:11:57;12.10;99.90
7516;DHT22;3799;47.184;8.538;2022-10-23T02:14:36;12.00;99.90
7516;DHT22;3799;47.184;8.538;2022-10-23T02:17:07;12.00;99.90
7516;DHT22;3799;47.184;8.538;2022-10-23T02:19:47;11.80;99.90
7516;DHT22;3799;47.184;8.538;2022-10-23T02:22:19;12.00;99.90
7516;DHT22;3799;47.184;8.538;2022-10-23T02:24:50;11.90;99.90
7516;DHT22;3799;47.184;8.538;2022-10-23T02:27:23;11.90;99.90
7516;DHT22;3799;47.184;8.538;2022-10-23T02:29:51;12.10;99.90
7516;DHT22;3799;47.184;8.538;2022-10-23T02:32:18;11.90;99.90
7516;DHT22;3799;47.184;8.538;2022-10-23T02:34:45;12.10;99.90
7516;DHT22;3799;47.184;8.538;2022-10-23T02:37:10;12.10;99.90
7516;DHT22;3799;47.184;8.538;2022-10-23T02:39:36;12.10;99.90
7516;DHT22;3799;47.184;8.538;2022-10-23T02:47:10;12.30;99.90
7516;DHT22;3799;47.184;8.538;2022-10-23T02:57:28;12.20;99.90
7516;DHT22;3799;47.184;8.538;2022-10-23T03:00:06;12.00;99.90
7516;DHT22;3799;47.184;8.538;2022-10-23T03:04:57;11.80;99.90
7516;DHT22;3799;47.184;8.538;2022-10-23T03:07:24;11.90;99.90
7516;DHT22;3799;47.184;8.538;2022-10-23T03:09:50;12.00;99.90
7516;DHT22;3799;47.184;8.538;2022-10-23T03:12:16;12.00;99.90
7516;DHT22;3799;47.184;8.538;2022-10-23T03:14:42;11.80;99.90
7516;DHT22;3799;47.184;8.538;2022-10-23T03:17:08;12.10;99.90
7516;DHT22;3799;47.184;8.538;2022-10-23T03:19:33;12.10;99.90
7516;DHT22;3799;47.184;8.538;2022-10-23T03:21:59;11.90;99.90
7516;DHT22;3799;47.184;8.538;2022-10-23T03:24:25;11.70;99.90
7516;DHT22;3799;47.184;8.538;2022-10-23T03:26:50;11.90;99.90
7516;DHT22;3799;47.184;8.538;2022-10-23T03:29:16;11.80;99.90
7516;DHT22;3799;47.184;8.538;2022-10-23T03:31:44;11.60;99.90
7516;DHT22;3799;47.184;8.538;2022-10-23T03:34:10;11.50;99.90
7516;DHT22;3799;47.184;8.538;2022-10-23T03:36:36;11.60;99.90
7516;DHT22;3799;47.184;8.538;2022-10-23T03:39:02;11.60;99.90
7516;DHT22;3799;47.184;8.538;2022-10-23T03:41:28;11.60;99.90
7516;DHT22;3799;47.184;8.538;2022-10-23T03:43:54;11.60;99.90
7516;DHT22;3799;47.184;8.538;2022-10-23T03:46:20;11.90;99.90
7516;DHT22;3799;47.184;8.538;2022-10-23T03:48:45;11.60;99.90
7516;DHT22;3799;47.184;8.538;2022-10-23T03:51:11;11.60;99.90
7516;DHT22;3799;47.184;8.538;2022-10-23T03:53:37;11.80;99.90
7516;DHT22;3799;47.184;8.538;2022-10-23T03:56:03;11.60;99.90
7516;DHT22;3799;47.184;8.538;2022-10-23T03:58:28;11.80;99.90
7516;DHT22;3799;47.184;8.538;2022-10-23T04:00:56;11.50;99.90
7516;DHT22;3799;47.184;8.538;2022-10-23T04:03:21;11.70;99.90
7516;DHT22;3799;47.184;8.538;2022-10-23T04:05:47;11.70;99.90
7516;DHT22;3799;47.184;8.538;2022-10-23T04:08:13;11.50;99.90
7516;DHT22;3799;47.184;8.538;2022-10-23T04:10:39;11.30;99.90
7516;DHT22;3799;47.184;8.538;2022-10-23T04:13:04;11.60;99.90
7516;DHT22;3799;47.184;8.538;2022-10-23T04:15:30;11.70;99.90
7516;DHT22;3799;47.184;8.538;2022-10-23T04:17:55;11.50;99.90
7516;DHT22;3799;47.184;8.538;2022-10-23T04:20:21;11.70;99.90
7516;DHT22;3799;47.184;8.538;2022-10-23T04:22:47;11.30;99.90
7516;DHT22;3799;47.184;8.538;2022-10-23T04:25:16;11.20;99.90
7516;DHT22;3799;47.184;8.538;2022-10-23T04:27:44;11.40;99.90
7516;DHT22;3799;47.184;8.538;2022-10-23T04:30:10;11.30;99.90
7516;DHT22;3799;47.184;8.538;2022-10-23T04:32:36;11.20;99.90
7516;DHT22;3799;47.184;8.538;2022-10-23T04:35:07;11.20;99.90
7516;DHT22;3799;47.184;8.538;2022-10-23T04:37:33;11.30;99.90
7516;DHT22;3799;47.184;8.538;2022-10-23T04:39:59;11.20;99.90
7516;DHT22;3799;47.184;8.538;2022-10-23T04:42:24;11.30;99.90
7516;DHT22;3799;47.184;8.538;2022-10-23T04:44:50;11.20;99.90
7516;DHT22;3799;47.184;8.538;2022-10-23T04:47:18;11.30;99.90
7516;DHT22;3799;47.184;8.538;2022-10-23T04:49:43;11.20;99.90
7516;DHT22;3799;47.184;8.538;2022-10-23T04:52:09;11.30;99.90
7516;DHT22;3799;47.184;8.538;2022-10-23T04:54:35;11.30;99.90
7516;DHT22;3799;47.184;8.538;2022-10-23T04:57:05;11.10;99.90
7516;DHT22;3799;47.184;8.538;2022-10-23T04:59:31;11.20;99.90
7516;DHT22;3799;47.184;8.538;2022-10-23T05:01:56;11.40;99.90
7516;DHT22;3799;47.184;8.538;2022-10-23T05:04:22;11.10;99.90
7516;DHT22;3799;47.184;8.538;2022-10-23T05:06:47;11.20;99.90
7516;DHT22;3799;47.184;8.538;2022-10-23T05:09:13;11.10;99.90
7516;DHT22;3799;47.184;8.538;2022-10-23T05:11:39;11.10;99.90
7516;DHT22;3799;47.184;8.538;2022-10-23T05:14:04;11.20;99.90
7516;DHT22;3799;47.184;8.538;2022-10-23T05:16:37;10.90;99.90
7516;DHT22;3799;47.184;8.538;2022-10-23T05:19:04;11.10;99.90
7516;DHT22;3799;47.184;8.538;2022-10-23T05:21:30;10.80;99.90
7516;DHT22;3799;47.184;8.538;2022-10-23T05:23:58;10.90;99.90
7516;DHT22;3799;47.184;8.538;2022-10-23T05:26:26;10.90;99.90
7516;DHT22;3799;47.184;8.538;2022-10-23T05:28:52;11.10;99.90
7516;DHT22;3799;47.184;8.538;2022-10-23T05:31:18;11.00;99.90
7516;DHT22;3799;47.184;8.538;2022-10-23T05:33:44;10.80;99.90
7516;DHT22;3799;47.184;8.538;2022-10-23T05:36:10;11.00;99.90
7516;DHT22;3799;47.184;8.538;2022-10-23T05:38:36;11.00;99.90
7516;DHT22;3799;47.184;8.538;2022-10-23T05:41:02;11.00;99.90
7516;DHT22;3799;47.184;8.538;2022-10-23T05:43:36;11.10;99.90
7516;DHT22;3799;47.184;8.538;2022-10-23T05:46:03;11.10;99.90
7516;DHT22;3799;47.184;8.538;2022-10-23T05:48:29;11.10;99.90
7516;DHT22;3799;47.184;8.538;2022-10-23T05:50:54;11.10;99.90
7516;DHT22;3799;47.184;8.538;2022-10-23T05:53:20;11.10;99.90
7516;DHT22;3799;47.184;8.538;2022-10-23T05:55:46;11.40;99.90
7516;DHT22;3799;47.184;8.538;2022-10-23T05:58:11;11.20;99.90
7516;DHT22;3799;47.184;8.538;2022-10-23T06:00:37;11.30;99.90
7516;DHT22;3799;47.184;8.538;2022-10-23T06:03:03;11.10;99.90
7516;DHT22;3799;47.184;8.538;2022-10-23T06:05:28;11.40;99.90
7516;DHT22;3799;47.184;8.538;2022-10-23T06:07:57;11.10;99.90
7516;DHT22;3799;47.184;8.538;2022-10-23T06:10:23;11.00;99.90
7516;DHT22;3799;47.184;8.538;2022-10-23T06:12:49;11.30;99.90
7516;DHT22;3799;47.184;8.538;2022-10-23T06:15:15;11.10;99.90
7516;DHT22;3799;47.184;8.538;2022-10-23T06:17:44;11.40;99.90
7516;DHT22;3799;47.184;8.538;2022-10-23T06:20:09;11.30;99.90
7516;DHT22;3799;47.184;8.538;2022-10-23T06:22:35;11.20;99.90
7516;DHT22;3799;47.184;8.538;2022-10-23T06:25:01;11.50;99.90
7516;DHT22;3799;47.184;8.538;2022-10-23T06:27:27;11.30;99.90
7516;DHT22;3799;47.184;8.538;2022-10-23T06:29:52;11.40;99.90
7516;DHT22;3799;47.184;8.538;2022-10-23T06:32:18;11.20;99.90
7516;DHT22;3799;47.184;8.538;2022-10-23T06:34:44;11.40;99.90
7516;DHT22;3799;47.184;8.538;2022-10-23T06:37:10;11.50;99.90
7516;DHT22;3799;47.184;8.538;2022-10-23T06:39:35;11.40;99.90
7516;DHT22;3799;47.184;8.538;2022-10-23T06:42:01;11.40;99.90
7516;DHT22;3799;47.184;8.538;2022-10-23T06:44:27;11.50;99.90
7516;DHT22;3799;47.184;8.538;2022-10-23T06:46:53;11.50;99.90
7516;DHT22;3799;47.184;8.538;2022-10-23T06:49:18;11.60;99.90
7516;DHT22;3799;47.184;8.538;2022-10-23T06:51:44;11.50;99.90
7516;DHT22;3799;47.184;8.538;2022-10-23T06:54:10;11.80;99.90
7516;DHT22;3799;47.184;8.538;2022-10-23T06:56:36;11.60;99.90
7516;DHT22;3799;47.184;8.538;2022-10-23T06:59:02;11.50;99.90
7516;DHT22;3799;47.184;8.538;2022-10-23T07:01:27;11.60;99.90
7516;DHT22;3799;47.184;8.538;2022-10-23T07:03:53;12.00;99.90
7516;DHT22;3799;47.184;8.538;2022-10-23T07:06:20;11.90;99.90
7516;DHT22;3799;47.184;8.538;2022-10-23T07:08:45;12.00;99.90
7516;DHT22;3799;47.184;8.538;2022-10-23T07:11:11;12.10;99.90
7516;DHT22;3799;47.184;8.538;2022-10-23T07:13:37;12.00;99.90
7516;DHT22;3799;47.184;8.538;2022-10-23T07:18:35;12.00;99.90
7516;DHT22;3799;47.184;8.538;2022-10-23T07:21:01;12.40;99.90
7516;DHT22;3799;47.184;8.538;2022-10-23T07:23:26;12.00;99.90
7516;DHT22;3799;47.184;8.538;2022-10-23T07:25:52;12.40;99.90
7516;DHT22;3799;47.184;8.538;2022-10-23T07:28:18;12.40;99.90
7516;DHT22;3799;47.184;8.538;2022-10-23T07:30:44;12.30;99.90
7516;DHT22;3799;47.184;8.538;2022-10-23T07:33:09;12.20;99.90
7516;DHT22;3799;47.184;8.538;2022-10-23T07:35:38;12.50;99.90
7516;DHT22;3799;47.184;8.538;2022-10-23T07:38:03;12.50;99.90
7516;DHT22;3799;47.184;8.538;2022-10-23T07:40:29;12.70;99.90
7516;DHT22;3799;47.184;8.538;2022-10-23T07:43:00;12.60;99.90
7516;DHT22;3799;47.184;8.538;2022-10-23T07:45:26;12.90;99.90
7516;DHT22;3799;47.184;8.538;2022-10-23T07:47:51;12.70;99.90
7516;DHT22;3799;47.184;8.538;2022-10-23T07:50:19;12.80;99.90
7516;DHT22;3799;47.184;8.538;2022-10-23T07:52:45;12.80;99.90
7516;DHT22;3799;47.184;8.538;2022-10-23T07:55:11;12.60;99.90
7516;DHT22;3799;47.184;8.538;2022-10-23T07:57:37;12.90;99.90
7516;DHT22;3799;47.184;8.538;2022-10-23T08:00:03;12.80;99.90
7516;DHT22;3799;47.184;8.538;2022-10-23T08:02:28;12.90;99.90
7516;DHT22;3799;47.184;8.538;2022-10-23T08:04:54;13.10;99.90
7516;DHT22;3799;47.184;8.538;2022-10-23T08:07:20;13.30;99.90
7516;DHT22;3799;47.184;8.538;2022-10-23T08:09:45;13.20;99.90
7516;DHT22;3799;47.184;8.538;2022-10-23T08:12:11;13.10;99.90
7516;DHT22;3799;47.184;8.538;2022-10-23T08:14:37;13.30;99.90
7516;DHT22;3799;47.184;8.538;2022-10-23T08:17:03;13.10;99.90
7516;DHT22;3799;47.184;8.538;2022-10-23T08:19:29;13.20;99.90
7516;DHT22;3799;47.184;8.538;2022-10-23T08:21:54;13.10;99.90
7516;DHT22;3799;47.184;8.538;2022-10-23T08:24:24;13.20;99.90
7516;DHT22;3799;47.184;8.538;2022-10-23T08:26:52;13.30;99.90
7516;DHT22;3799;47.184;8.538;2022-10-23T08:29:21;13.40;99.90
7516;DHT22;3799;47.184;8.538;2022-10-23T08:31:51;13.40;99.90
7516;DHT22;3799;47.184;8.538;2022-10-23T08:34:26;13.50;99.90
7516;DHT22;3799;47.184;8.538;2022-10-23T08:36:52;13.50;99.90
7516;DHT22;3799;47.184;8.538;2022-10-23T08:39:17;13.80;99.90
7516;DHT22;3799;47.184;8.538;2022-10-23T08:41:47;13.70;99.90
7516;DHT22;3799;47.184;8.538;2022-10-23T08:46:54;13.70;99.90
7516;DHT22;3799;47.184;8.538;2022-10-23T08:49:41;13.90;99.90
7516;DHT22;3799;47.184;8.538;2022-10-23T08:52:57;13.90;99.90
7516;DHT22;3799;47.184;8.538;2022-10-23T08:57:29;13.80;99.90
7516;DHT22;3799;47.184;8.538;2022-10-23T08:59:59;14.00;99.90
7516;DHT22;3799;47.184;8.538;2022-10-23T09:02:47;14.10;99.90
7516;DHT22;3799;47.184;8.538;2022-10-23T09:05:18;14.40;99.90
7516;DHT22;3799;47.184;8.538;2022-10-23T09:13:28;14.00;99.90
7516;DHT22;3799;47.184;8.538;2022-10-23T09:15:51;14.10;99.90
7516;DHT22;3799;47.184;8.538;2022-10-23T09:18:19;14.30;99.90
7516;DHT22;3799;47.184;8.538;2022-10-23T09:20:45;14.20;99.90
7516;DHT22;3799;47.184;8.538;2022-10-23T09:23:16;14.10;99.90
7516;DHT22;3799;47.184;8.538;2022-10-23T09:25:42;14.40;99.90
7516;DHT22;3799;47.184;8.538;2022-10-23T09:28:18;14.50;99.90
7516;DHT22;3799;47.184;8.538;2022-10-23T09:30:44;14.90;99.90
7516;DHT22;3799;47.184;8.538;2022-10-23T09:33:14;14.80;99.90
7516;DHT22;3799;47.184;8.538;2022-10-23T09:35:50;14.90;99.90
7516;DHT22;3799;47.184;8.538;2022-10-23T09:38:35;15.00;99.90
7516;DHT22;3799;47.184;8.538;2022-10-23T09:41:46;15.40;99.90
7516;DHT22;3799;47.184;8.538;2022-10-23T09:43:58;15.50;99.90
7516;DHT22;3799;47.184;8.538;2022-10-23T09:46:24;15.90;99.90
7516;DHT22;3799;47.184;8.538;2022-10-23T09:48:56;16.00;99.90
7516;DHT22;3799;47.184;8.538;2022-10-23T09:51:22;16.20;99.90
7516;DHT22;3799;47.184;8.538;2022-10-23T09:53:57;16.30;99.90
7516;DHT22;3799;47.184;8.538;2022-10-23T09:58:56;16.40;99.90
7516;DHT22;3799;47.184;8.538;2022-10-23T10:01:33;16.50;99.90
7516;DHT22;3799;47.184;8.538;2022-10-23T10:04:03;16.40;99.90
7516;DHT22;3799;47.184;8.538;2022-10-23T10:06:30;16.60;99.90
7516;DHT22;3799;47.184;8.538;2022-10-23T10:08:59;16.70;99.90
7516;DHT22;3799;47.184;8.538;2022-10-23T10:19:06;16.70;99.90
7516;DHT22;3799;47.184;8.538;2022-10-23T10:24:42;16.80;99.90
7516;DHT22;3799;47.184;8.538;2022-10-23T10:27:28;16.90;99.90
7516;DHT22;3799;47.184;8.538;2022-10-23T10:32:27;16.60;99.90
7516;DHT22;3799;47.184;8.538;2022-10-23T10:37:32;16.40;99.90
7516;DHT22;3799;47.184;8.538;2022-10-23T10:45:18;16.80;99.90
7516;DHT22;3799;47.184;8.538;2022-10-23T10:47:52;16.60;99.90
7516;DHT22;3799;47.184;8.538;2022-10-23T10:55:37;17.40;99.90
7516;DHT22;3799;47.184;8.538;2022-10-23T10:58:04;17.70;99.90
7516;DHT22;3799;47.184;8.538;2022-10-23T11:00:34;17.50;99.90
7516;DHT22;3799;47.184;8.538;2022-10-23T11:03:01;17.70;99.90
7516;DHT22;3799;47.184;8.538;2022-10-23T11:05:33;17.90;99.90
7516;DHT22;3799;47.184;8.538;2022-10-23T11:10:26;17.80;99.90
7516;DHT22;3799;47.184;8.538;2022-10-23T11:12:54;17.90;99.90
7516;DHT22;3799;47.184;8.538;2022-10-23T11:15:23;18.30;99.90
7516;DHT22;3799;47.184;8.538;2022-10-23T11:17:52;18.00;99.90
7516;DHT22;3799;47.184;8.538;2022-10-23T11:20:28;17.80;99.90
7516;DHT22;3799;47.184;8.538;2022-10-23T11:25:30;17.80;99.90
7516;DHT22;3799;47.184;8.538;2022-10-23T11:28:04;17.90;99.90
7516;DHT22;3799;47.184;8.538;2022-10-23T11:38:33;18.60;99.90
7516;DHT22;3799;47.184;8.538;2022-10-23T11:41:00;18.20;99.90
7516;DHT22;3799;47.184;8.538;2022-10-23T11:45:52;18.50;99.90
7516;DHT22;3799;47.184;8.538;2022-10-23T11:53:26;18.90;99.90
7516;DHT22;3799;47.184;8.538;2022-10-23T11:56:22;18.70;99.90
7516;DHT22;3799;47.184;8.538;2022-10-23T11:58:49;18.70;99.90
7516;DHT22;3799;47.184;8.538;2022-10-23T12:06:26;18.80;99.90
7516;DHT22;3799;47.184;8.538;2022-10-23T12:08:54;18.70;99.90
7516;DHT22;3799;47.184;8.538;2022-10-23T12:11:40;18.90;99.90
7516;DHT22;3799;47.184;8.538;2022-10-23T12:14:28;18.60;99.90
7516;DHT22;3799;47.184;8.538;2022-10-23T12:16:52;18.70;99.90
7516;DHT22;3799;47.184;8.538;2022-10-23T12:19:20;19.10;99.90
7516;DHT22;3799;47.184;8.538;2022-10-23T12:21:46;18.80;99.90
7516;DHT22;3799;47.184;8.538;2022-10-23T12:27:15;18.90;99.90
7516;DHT22;3799;47.184;8.538;2022-10-23T12:40:06;19.30;99.90
7516;DHT22;3799;47.184;8.538;2022-10-23T12:42:32;19.40;99.90
7516;DHT22;3799;47.184;8.538;2022-10-23T12:47:30;19.60;99.90
7516;DHT22;3799;47.184;8.538;2022-10-23T12:49:58;19.70;99.90
7516;DHT22;3799;47.184;8.538;2022-10-23T12:52:23;19.70;99.80
7516;DHT22;3799;47.184;8.538;2022-10-23T12:54:49;19.80;99.70
7516;DHT22;3799;47.184;8.538;2022-10-23T12:57:19;19.80;99.90
7516;DHT22;3799;47.184;8.538;2022-10-23T12:59:47;19.90;99.90
7516;DHT22;3799;47.184;8.538;2022-10-23T13:02:19;20.10;99.90
7516;DHT22;3799;47.184;8.538;2022-10-23T13:04:51;20.10;99.90
7516;DHT22;3799;47.184;8.538;2022-10-23T13:07:25;20.30;99.90
7516;DHT22;3799;47.184;8.538;2022-10-23T13:09:51;20.30;99.60
7516;DHT22;3799;47.184;8.538;2022-10-23T13:12:27;20.50;97.90
7516;DHT22;3799;47.184;8.538;2022-10-23T13:14:56;20.50;97.20
7516;DHT22;3799;47.184;8.538;2022-10-23T13:17:32;20.40;96.20
7516;DHT22;3799;47.184;8.538;2022-10-23T13:20:07;20.40;96.50
7516;DHT22;3799;47.184;8.538;2022-10-23T13:22:33;20.60;98.40
7516;DHT22;3799;47.184;8.538;2022-10-23T13:24:58;20.60;97.60
7516;DHT22;3799;47.184;8.538;2022-10-23T13:27:33;20.60;97.80
7516;DHT22;3799;47.184;8.538;2022-10-23T13:29:59;20.40;98.00
7516;DHT22;3799;47.184;8.538;2022-10-23T13:32:26;20.40;99.90
7516;DHT22;3799;47.184;8.538;2022-10-23T13:34:53;20.30;99.90
7516;DHT22;3799;47.184;8.538;2022-10-23T13:37:28;20.40;99.90
7516;DHT22;3799;47.184;8.538;2022-10-23T13:40:02;20.40;99.90
7516;DHT22;3799;47.184;8.538;2022-10-23T13:42:28;20.20;99.90
7516;DHT22;3799;47.184;8.538;2022-10-23T13:44:54;20.60;99.90
7516;DHT22;3799;47.184;8.538;2022-10-23T13:47:20;20.80;99.90
7516;DHT22;3799;47.184;8.538;2022-10-23T13:49:45;21.00;99.20
7516;DHT22;3799;47.184;8.538;2022-10-23T13:52:18;21.10;98.80
7516;DHT22;3799;47.184;8.538;2022-10-23T13:54:46;21.10;98.50
7516;DHT22;3799;47.184;8.538;2022-10-23T13:57:12;21.10;98.90
7516;DHT22;3799;47.184;8.538;2022-10-23T13:59:38;21.40;98.20
7516;DHT22;3799;47.184;8.538;2022-10-23T14:02:11;21.80;96.90
7516;DHT22;3799;47.184;8.538;2022-10-23T14:04:41;22.20;96.50
7516;DHT22;3799;47.184;8.538;2022-10-23T14:07:07;22.50;96.00
7516;DHT22;3799;47.184;8.538;2022-10-23T14:09:33;23.00;95.40
7516;DHT22;3799;47.184;8.538;2022-10-23T14:11:59;23.40;93.20
7516;DHT22;3799;47.184;8.538;2022-10-23T14:14:24;23.30;92.30
7516;DHT22;3799;47.184;8.538;2022-10-23T14:16:50;23.00;91.90
7516;DHT22;3799;47.184;8.538;2022-10-23T14:19:17;22.60;91.80
7516;DHT22;3799;47.184;8.538;2022-10-23T14:21:42;22.40;92.20
7516;DHT22;3799;47.184;8.538;2022-10-23T14:24:10;22.10;92.30
7516;DHT22;3799;47.184;8.538;2022-10-23T14:26:36;21.70;92.70
7516;DHT22;3799;47.184;8.538;2022-10-23T14:29:02;21.30;93.20
7516;DHT22;3799;47.184;8.538;2022-10-23T14:31:28;20.90;94.20
7516;DHT22;3799;47.184;8.538;2022-10-23T14:33:55;20.60;95.50
7516;DHT22;3799;47.184;8.538;2022-10-23T14:36:22;20.20;96.60
7516;DHT22;3799;47.184;8.538;2022-10-23T14:38:47;19.70;97.60
7516;DHT22;3799;47.184;8.538;2022-10-23T14:41:14;19.50;98.70
7516;DHT22;3799;47.184;8.538;2022-10-23T14:43:40;19.30;99.70
7516;DHT22;3799;47.184;8.538;2022-10-23T14:46:08;19.30;99.90
7516;DHT22;3799;47.184;8.538;2022-10-23T14:48:34;19.10;99.90
7516;DHT22;3799;47.184;8.538;2022-10-23T14:51:03;19.20;99.90
7516;DHT22;3799;47.184;8.538;2022-10-23T14:53:29;18.90;99.90
7516;DHT22;3799;47.184;8.538;2022-10-23T14:55:59;18.80;99.90
7516;DHT22;3799;47.184;8.538;2022-10-23T14:58:25;18.60;99.90
7516;DHT22;3799;47.184;8.538;2022-10-23T15:01:00;18.30;99.90
7516;DHT22;3799;47.184;8.538;2022-10-23T15:03:26;18.30;99.90
7516;DHT22;3799;47.184;8.538;2022-10-23T15:05:52;18.40;99.90
7516;DHT22;3799;47.184;8.538;2022-10-23T15:08:18;18.00;99.90
7516;DHT22;3799;47.184;8.538;2022-10-23T15:10:44;18.20;99.90
7516;DHT22;3799;47.184;8.538;2022-10-23T15:13:09;17.90;99.90
7516;DHT22;3799;47.184;8.538;2022-10-23T15:15:35;17.70;99.90
7516;DHT22;3799;47.184;8.538;2022-10-23T15:18:01;17.50;99.90
7516;DHT22;3799;47.184;8.538;2022-10-23T15:20:27;17.40;99.90
7516;DHT22;3799;47.184;8.538;2022-10-23T15:22:52;17.60;99.90
7516;DHT22;3799;47.184;8.538;2022-10-23T15:25:18;17.60;99.90
7516;DHT22;3799;47.184;8.538;2022-10-23T15:27:44;17.40;99.90
7516;DHT22;3799;47.184;8.538;2022-10-23T15:30:10;17.30;99.90
7516;DHT22;3799;47.184;8.538;2022-10-23T15:32:36;17.50;99.90
7516;DHT22;3799;47.184;8.538;2022-10-23T15:35:04;17.30;99.90
7516;DHT22;3799;47.184;8.538;2022-10-23T15:37:33;17.00;99.90
7516;DHT22;3799;47.184;8.538;2022-10-23T15:39:58;17.00;99.90
7516;DHT22;3799;47.184;8.538;2022-10-23T15:42:24;17.30;99.90
7516;DHT22;3799;47.184;8.538;2022-10-23T15:44:50;17.00;99.90
7516;DHT22;3799;47.184;8.538;2022-10-23T15:47:15;16.90;99.90
7516;DHT22;3799;47.184;8.538;2022-10-23T15:49:41;17.10;99.90
7516;DHT22;3799;47.184;8.538;2022-10-23T15:52:08;17.00;99.90
7516;DHT22;3799;47.184;8.538;2022-10-23T15:54:34;16.60;99.90
7516;DHT22;3799;47.184;8.538;2022-10-23T15:57:00;16.60;99.90
7516;DHT22;3799;47.184;8.538;2022-10-23T15:59:27;16.90;99.90
7516;DHT22;3799;47.184;8.538;2022-10-23T16:01:53;16.70;99.90
7516;DHT22;3799;47.184;8.538;2022-10-23T16:04:22;16.70;99.90
7516;DHT22;3799;47.184;8.538;2022-10-23T16:06:53;16.60;99.90
7516;DHT22;3799;47.184;8.538;2022-10-23T16:09:19;16.70;99.90
7516;DHT22;3799;47.184;8.538;2022-10-23T16:11:45;17.00;99.90
7516;DHT22;3799;47.184;8.538;2022-10-23T16:14:15;17.10;99.90
7516;DHT22;3799;47.184;8.538;2022-10-23T16:16:41;16.90;99.90
7516;DHT22;3799;47.184;8.538;2022-10-23T16:19:09;16.60;99.90
7516;DHT22;3799;47.184;8.538;2022-10-23T16:21:35;16.90;99.90
7516;DHT22;3799;47.184;8.538;2022-10-23T16:24:02;16.90;99.90
7516;DHT22;3799;47.184;8.538;2022-10-23T16:26:28;16.90;99.90
7516;DHT22;3799;47.184;8.538;2022-10-23T16:28:56;16.60;99.90
7516;DHT22;3799;47.184;8.538;2022-10-23T16:31:22;16.80;99.90
7516;DHT22;3799;47.184;8.538;2022-10-23T16:33:49;16.80;99.90
7516;DHT22;3799;47.184;8.538;2022-10-23T16:36:15;16.50;99.90
7516;DHT22;3799;47.184;8.538;2022-10-23T16:38:41;16.70;99.90
7516;DHT22;3799;47.184;8.538;2022-10-23T16:41:07;16.50;99.90
7516;DHT22;3799;47.184;8.538;2022-10-23T16:43:33;16.60;99.90
7516;DHT22;3799;47.184;8.538;2022-10-23T16:46:02;16.70;99.90
7516;DHT22;3799;47.184;8.538;2022-10-23T16:48:29;16.70;99.90
7516;DHT22;3799;47.184;8.538;2022-10-23T16:50:55;16.70;99.90
7516;DHT22;3799;47.184;8.538;2022-10-23T16:53:20;16.50;99.90
7516;DHT22;3799;47.184;8.538;2022-10-23T16:55:47;16.20;99.90
7516;DHT22;3799;47.184;8.538;2022-10-23T16:58:13;16.30;99.90
7516;DHT22;3799;47.184;8.538;2022-10-23T17:00:38;16.30;99.90
7516;DHT22;3799;47.184;8.538;2022-10-23T17:03:04;16.10;99.90
7516;DHT22;3799;47.184;8.538;2022-10-23T17:05:33;16.50;99.90
7516;DHT22;3799;47.184;8.538;2022-10-23T17:07:59;16.10;99.90
7516;DHT22;3799;47.184;8.538;2022-10-23T17:10:26;16.30;99.90
7516;DHT22;3799;47.184;8.538;2022-10-23T17:12:51;16.10;99.90
7516;DHT22;3799;47.184;8.538;2022-10-23T17:15:17;16.10;99.90
7516;DHT22;3799;47.184;8.538;2022-10-23T17:17:44;16.00;99.90
7516;DHT22;3799;47.184;8.538;2022-10-23T17:20:10;16.30;99.90
7516;DHT22;3799;47.184;8.538;2022-10-23T17:22:36;16.10;99.90
7516;DHT22;3799;47.184;8.538;2022-10-23T17:25:03;16.30;99.90
7516;DHT22;3799;47.184;8.538;2022-10-23T17:27:29;16.00;99.90
7516;DHT22;3799;47.184;8.538;2022-10-23T17:29:55;16.10;99.90
7516;DHT22;3799;47.184;8.538;2022-10-23T17:32:21;16.00;99.90
7516;DHT22;3799;47.184;8.538;2022-10-23T17:34:46;16.20;99.90
7516;DHT22;3799;47.184;8.538;2022-10-23T17:37:12;16.30;99.90
7516;DHT22;3799;47.184;8.538;2022-10-23T17:39:39;16.00;99.90
7516;DHT22;3799;47.184;8.538;2022-10-23T17:42:04;16.30;99.90
7516;DHT22;3799;47.184;8.538;2022-10-23T17:44:30;15.90;99.90
7516;DHT22;3799;47.184;8.538;2022-10-23T17:46:56;16.00;99.90
7516;DHT22;3799;47.184;8.538;2022-10-23T17:49:22;16.00;99.90
7516;DHT22;3799;47.184;8.538;2022-10-23T17:51:51;16.00;99.90
7516;DHT22;3799;47.184;8.538;2022-10-23T17:54:17;16.10;99.90
7516;DHT22;3799;47.184;8.538;2022-10-23T17:56:44;15.70;99.90
7516;DHT22;3799;47.184;8.538;2022-10-23T17:59:13;15.80;99.90